NCAR-RAP Real-Time Weather Data

Output produced by METARs form (08 May 2021  00:58 UTC)
found at http://weather.rap.ucar.edu/surface/
 
KMCN 080053Z AUTO 31004KT 10SM CLR 16/03 A3005 RMK AO2 SLP175 T01610028
KMCN 072353Z AUTO 32005KT 10SM CLR 19/02 A3004 RMK AO2 SLP171 T01890022 10233 20189 53003
KMCN 072253Z 31011KT 10SM CLR 21/02 A3004 RMK AO2 SLP169 T02110017
KMCN 072153Z 33014G22KT 10SM CLR 22/02 A3003 RMK AO2 SLP167 T02220022
KMCN 072053Z 34014G19KT 10SM CLR 23/02 A3003 RMK AO2 PK WND 30027/2030 SLP166 T02280022 58009
KMCN 071953Z 29013G21KT 10SM CLR 22/04 A3004 RMK AO2 SLP169 T02220039
KMCN 071853Z 32012G27KT 10SM CLR 22/04 A3005 RMK AO2 PK WND 34028/1801 SLP174 T02220039
KMCN 071753Z 29015G26KT 10SM CLR 22/03 A3006 RMK AO2 PK WND 32029/1703 SLP176 T02170033 10222 20122 58006
KMCN 071653Z 30012G24KT 260V320 10SM CLR 22/07 A3007 RMK AO2 PK WND 30028/1559 SLP181 T02170067
KMCN 071553Z 32014G28KT 10SM CLR 21/07 A3008 RMK AO2 PK WND 28028/1546 SLP182 T02060067
KMCN 071453Z 32012G18KT 10SM CLR 19/08 A3008 RMK AO2 SLP183 T01940078 51007
KMCN 071353Z 32011KT 10SM CLR 18/08 A3008 RMK AO2 SLP182 T01780078
KMCN 071253Z 31008KT 10SM CLR 15/08 A3007 RMK AO2 SLP181 T01500083
KMCN 071153Z 29009KT 10SM CLR 12/08 A3006 RMK AO2 SLP175 T01220083 10150 20106 53021
KMCN 071053Z AUTO 28006KT 10SM CLR 11/07 A3003 RMK AO2 SLP166 T01060072
KMCN 070953Z AUTO 28006KT 10SM CLR 11/08 A3001 RMK AO2 SLP158 T01060078